Time;durP1;ratioP1;P1;durP2;ratioP2;P2;SDS_P1;SDS_P2;PMS_P1;PMS_P2;Temp;Humidity;BMP_temperature;BMP_pressure;BME280_temperature;BME280_humidity;BME280_pressure;Samples;Min_cycle;Max_cycle;Signal;HPM_P1;HPM_P2
2023/06/10 00:00:41;;;;;;;;;;;;;;;;;;5075219;28;20400;-67
2023/06/10 00:03:07;;;;;;;;;;;;;;;;;;5075510;28;19955;-67
2023/06/10 00:05:34;;;;;;;;;;;;;;;;;;5074847;28;20050;-68
2023/06/10 00:08:01;;;;;;;;;;;;;;;;;;5073514;28;19967;-67
2023/06/10 00:10:27;;;;;;;;;;;;;;;;;;5073497;28;19960;-67
2023/06/10 00:12:53;;;;;;;;;;;;;;;;;;5075753;28;20475;-67
2023/06/10 00:15:19;;;;;;;;;;;;;;;;;;5074622;28;19966;-67
2023/06/10 00:17:45;;;;;;;;;;;;;;;;;;5074511;28;19998;-67
2023/06/10 00:20:11;;;;;;;;;;;;;;;;;;5074888;28;19955;-67
2023/06/10 00:22:37;;;;;;;;;;;;;;;;;;5074456;28;19955;-67
2023/06/10 00:25:03;;;;;;;;;;;;;;;;;;5075038;28;20036;-68
2023/06/10 00:27:34;;;;;;;;;;;;;;;;;;5074498;28;19974;-68
2023/06/10 00:30:00;;;;;;;;;;;;;;;;;;5072872;28;19965;-67
2023/06/10 00:32:26;;;;;;;;;;;;;;;;;;5074312;28;19955;-67
2023/06/10 00:34:52;;;;;;;;;;;;;;;;;;5073667;28;19971;-67
2023/06/10 00:37:18;;;;;;;;;;;;;;;;;;5074174;28;19982;-67
2023/06/10 00:39:44;;;;;;;;;;;;;;;;;;5074433;28;20005;-67
2023/06/10 00:42:10;;;;;;;;;;;;;;;;;;5074076;28;20432;-67
2023/06/10 00:44:36;;;;;;;;;;;;;;;;;;5074052;28;20372;-67
2023/06/10 00:47:02;;;;;;;;;;;;;;;;;;5074079;28;19955;-67
2023/06/10 00:49:28;;;;;;;;;;;;;;;;;;5074292;28;19956;-67
2023/06/10 00:51:54;;;;;;;;;;;;;;;;;;5073966;28;20031;-68
2023/06/10 00:54:20;;;;;;;;;;;;;;;;;;5073934;28;20024;-67
2023/06/10 00:56:46;;;;;;;;;;;;;;;;;;5073828;28;20070;-67
2023/06/10 00:59:14;;;;;;;;;;;;;;;;;;5074164;28;19956;-66
2023/06/10 01:01:40;;;;;;;;;;;;;;;;;;5073895;28;19956;-67
2023/06/10 01:04:09;;;;;;;;;;;;;;;;;;5073921;28;20072;-67
2023/06/10 01:06:37;;;;;;;;;;;;;;;;;;5073835;28;20009;-68
2023/06/10 01:09:03;;;;;;;;;;;;;;;;;;5072494;28;20349;-67
2023/06/10 01:11:29;;;;;;;;;;;;;;;;;;5073733;28;19955;-67
2023/06/10 01:13:55;;;;;;;;;;;;;;;;;;5074538;28;19959;-67
2023/06/10 01:16:21;;;;;;;;;;;;;;;;;;5073638;28;19956;-67
2023/06/10 01:18:47;;;;;;;;;;;;;;;;;;5073911;28;19994;-67
2023/06/10 01:21:13;;;;;;;;;;;;;;;;;;5073628;28;20042;-68
2023/06/10 01:23:39;;;;;;;;;;;;;;;;;;5073537;28;20016;-67
2023/06/10 01:26:05;;;;;;;;;;;;;;;;;;5073884;28;19959;-67
2023/06/10 01:28:31;;;;;;;;;;;;;;;;;;5073924;28;19959;-67
2023/06/10 01:30:57;;;;;;;;;;;;;;;;;;5073536;28;20535;-67
2023/06/10 01:33:23;;;;;;;;;;;;;;;;;;5073422;28;19962;-66
2023/06/10 01:35:49;;;;;;;;;;;;;;;;;;5074020;28;20013;-67
2023/06/10 01:38:15;;;;;;;;;;;;;;;;;;5073410;28;20010;-66
2023/06/10 01:40:41;;;;;;;;;;;;;;;;;;5073492;28;19960;-67
2023/06/10 01:43:07;;;;;;;;;;;;;;;;;;5073389;28;20006;-67
2023/06/10 01:45:33;;;;;;;;;;;;;;;;;;5073973;28;20009;-66
2023/06/10 01:47:58;;;;;;;;;;;;;;;;;;5077513;28;19955;-67
2023/06/10 01:50:24;;;;;;;;;;;;;;;;;;5077712;28;19956;-66
2023/06/10 01:52:50;;;;;;;;;;;;;;;;;;5077636;28;20307;-67
2023/06/10 01:55:16;;;;;;;;;;;;;;;;;;5078389;28;19966;-66
2023/06/10 01:57:42;;;;;;;;;;;;;;;;;;5077185;28;20425;-67
2023/06/10 02:00:10;;;;;;;;;;;;;;;;;;5077550;28;20009;-66
2023/06/10 02:02:35;;;;;;;;;;;;;;;;;;5077269;28;20083;-67
2023/06/10 02:05:01;;;;;;;;;;;;;;;;;;5077700;28;20478;-67
2023/06/10 02:07:27;;;;;;;;;;;;;;;;;;5077146;28;19956;-67
2023/06/10 02:09:53;;;;;;;;;;;;;;;;;;5077076;28;20417;-66
2023/06/10 02:12:19;;;;;;;;;;;;;;;;;;5077521;28;20451;-67
2023/06/10 02:14:45;;;;;;;;;;;;;;;;;;5077505;28;19955;-67
2023/06/10 02:17:12;;;;;;;;;;;;;;;;;;5076855;28;19982;-66
2023/06/10 02:19:42;;;;;;;;;;;;;;;;;;5077133;28;20388;-67
2023/06/10 02:22:08;;;;;;;;;;;;;;;;;;5077734;28;19955;-67
2023/06/10 02:24:33;;;;;;;;;;;;;;;;;;5077035;28;20001;-67
2023/06/10 02:27:00;;;;;;;;;;;;;;;;;;5076709;28;19959;-66
2023/06/10 02:29:26;;;;;;;;;;;;;;;;;;5076656;28;20066;-67
2023/06/10 02:31:52;;;;;;;;;;;;;;;;;;5077179;28;20009;-67
2023/06/10 02:34:18;;;;;;;;;;;;;;;;;;5076796;28;19975;-68
2023/06/10 02:36:44;;;;;;;;;;;;;;;;;;5076671;28;19979;-67
2023/06/10 02:39:10;;;;;;;;;;;;;;;;;;5077105;28;20009;-67
2023/06/10 02:41:36;;;;;;;;;;;;;;;;;;5076494;28;20049;-67
2023/06/10 02:44:02;;;;;;;;;;;;;;;;;;5076082;28;20057;-67
2023/06/10 02:46:28;;;;;;;;;;;;;;;;;;5076380;28;20413;-67
2023/06/10 02:48:54;;;;;;;;;;;;;;;;;;5076334;28;19998;-67
2023/06/10 02:51:20;;;;;;;;;;;;;;;;;;5076308;28;19962;-67
2023/06/10 02:53:46;;;;;;;;;;;;;;;;;;5076267;28;20006;-67
2023/06/10 02:56:12;;;;;;;;;;;;;;;;;;5076413;28;19960;-66
2023/06/10 02:58:38;;;;;;;;;;;;;;;;;;5075840;28;19956;-66
2023/06/10 03:01:04;;;;;;;;;;;;;;;;;;5076108;28;19955;-67
2023/06/10 03:03:30;;;;;;;;;;;;;;;;;;5076623;28;20329;-66
2023/06/10 03:05:56;;;;;;;;;;;;;;;;;;5076317;28;19956;-67
2023/06/10 03:08:22;;;;;;;;;;;;;;;;;;5076080;28;20042;-67
2023/06/10 03:10:48;;;;;;;;;;;;;;;;;;5076575;28;20423;-66
2023/06/10 03:13:14;;;;;;;;;;;;;;;;;;5076394;28;20436;-66
2023/06/10 03:15:40;;;;;;;;;;;;;;;;;;5075929;28;19989;-67
2023/06/10 03:18:07;;;;;;;;;;;;;;;;;;5075794;28;20024;-67
2023/06/10 03:20:36;;;;;;;;;;;;;;;;;;5076404;28;19961;-67
2023/06/10 03:23:02;;;;;;;;;;;;;;;;;;5076004;28;20397;-66
2023/06/10 03:25:28;;;;;;;;;;;;;;;;;;5075943;28;19955;-66
2023/06/10 03:27:54;;;;;;;;;;;;;;;;;;5075626;28;20005;-67
2023/06/10 03:30:20;;;;;;;;;;;;;;;;;;5075652;28;19991;-67
2023/06/10 03:32:46;;;;;;;;;;;;;;;;;;5075833;28;19962;-66
2023/06/10 03:35:12;;;;;;;;;;;;;;;;;;5075423;28;20512;-66
2023/06/10 03:37:38;;;;;;;;;;;;;;;;;;5075677;28;19975;-66
2023/06/10 03:40:04;;;;;;;;;;;;;;;;;;5075400;28;20004;-66
2023/06/10 03:42:30;;;;;;;;;;;;;;;;;;5075190;28;20430;-66
2023/06/10 03:44:56;;;;;;;;;;;;;;;;;;5075919;28;20470;-66
2023/06/10 03:47:22;;;;;;;;;;;;;;;;;;5075492;28;19955;-67
2023/06/10 03:49:47;;;;;;;;;;;;;;;;;;5075204;28;20341;-67
2023/06/10 03:52:13;;;;;;;;;;;;;;;;;;5075409;28;20062;-66
2023/06/10 03:54:39;;;;;;;;;;;;;;;;;;5075045;28;19959;-67
2023/06/10 03:57:05;;;;;;;;;;;;;;;;;;5075518;28;20022;-67
2023/06/10 03:59:32;;;;;;;;;;;;;;;;;;5075008;28;19993;-68
2023/06/10 04:01:58;;;;;;;;;;;;;;;;;;5074951;28;19959;-67
2023/06/10 04:04:24;;;;;;;;;;;;;;;;;;5075176;28;19956;-67
2023/06/10 04:06:50;;;;;;;;;;;;;;;;;;5074862;28;20005;-67
2023/06/10 04:09:16;;;;;;;;;;;;;;;;;;5074178;28;20413;-67
2023/06/10 04:11:42;;;;;;;;;;;;;;;;;;5074731;28;19960;-67
2023/06/10 04:14:08;;;;;;;;;;;;;;;;;;5075186;28;20025;-68
2023/06/10 04:16:35;;;;;;;;;;;;;;;;;;5074589;28;19975;-67
2023/06/10 04:19:01;;;;;;;;;;;;;;;;;;5074932;28;19990;-67
2023/06/10 04:21:27;;;;;;;;;;;;;;;;;;5074529;28;19956;-66
2023/06/10 04:23:53;;;;;;;;;;;;;;;;;;5074766;28;19959;-67
2023/06/10 04:26:19;;;;;;;;;;;;;;;;;;5074487;28;20033;-67
2023/06/10 04:28:45;;;;;;;;;;;;;;;;;;5074695;28;20017;-67
2023/06/10 04:31:11;;;;;;;;;;;;;;;;;;5074344;28;20043;-67
2023/06/10 04:33:37;;;;;;;;;;;;;;;;;;5074314;28;20422;-67
2023/06/10 04:36:03;;;;;;;;;;;;;;;;;;5074864;28;20006;-67
2023/06/10 04:38:30;;;;;;;;;;;;;;;;;;5074180;28;20010;-67
2023/06/10 04:40:56;;;;;;;;;;;;;;;;;;5073958;28;19959;-67
2023/06/10 04:43:22;;;;;;;;;;;;;;;;;;5073938;28;20090;-67
2023/06/10 04:45:48;;;;;;;;;;;;;;;;;;5074072;28;20042;-66
2023/06/10 04:48:15;;;;;;;;;;;;;;;;;;5074586;28;20416;-67
2023/06/10 04:50:40;;;;;;;;;;;;;;;;;;5074271;28;19966;-67
2023/06/10 04:53:07;;;;;;;;;;;;;;;;;;5074317;28;20043;-66
2023/06/10 04:55:33;;;;;;;;;;;;;;;;;;5074036;28;20001;-67
2023/06/10 04:57:59;;;;;;;;;;;;;;;;;;5073926;28;20002;-67
2023/06/10 05:00:25;;;;;;;;;;;;;;;;;;5074140;28;20318;-67
2023/06/10 05:02:51;;;;;;;;;;;;;;;;;;5074423;28;19978;-67
2023/06/10 05:05:17;;;;;;;;;;;;;;;;;;5073831;28;19956;-68
2023/06/10 05:07:43;;;;;;;;;;;;;;;;;;5073802;28;19962;-67
2023/06/10 05:10:09;;;;;;;;;;;;;;;;;;5073787;28;20408;-67
2023/06/10 05:12:35;;;;;;;;;;;;;;;;;;5074794;28;20409;-67
2023/06/10 05:15:01;;;;;;;;;;;;;;;;;;5074021;28;19955;-66
2023/06/10 05:17:27;;;;;;;;;;;;;;;;;;5073656;28;20467;-66
2023/06/10 05:19:53;;;;;;;;;;;;;;;;;;5073683;28;19959;-67
2023/06/10 05:22:19;;;;;;;;;;;;;;;;;;5073375;28;19956;-67
2023/06/10 05:24:45;;;;;;;;;;;;;;;;;;5074225;28;20295;-67
2023/06/10 05:27:11;;;;;;;;;;;;;;;;;;5073861;28;19963;-66
2023/06/10 05:29:38;;;;;;;;;;;;;;;;;;5072256;28;19959;-67
2023/06/10 05:32:04;;;;;;;;;;;;;;;;;;5074141;28;19956;-67
2023/06/10 05:34:29;;;;;;;;;;;;;;;;;;5073420;28;20016;-67
2023/06/10 05:36:55;;;;;;;;;;;;;;;;;;5073677;28;20449;-68
2023/06/10 05:39:22;;;;;;;;;;;;;;;;;;5073986;28;19991;-66
2023/06/10 05:41:48;;;;;;;;;;;;;;;;;;5073765;28;19963;-67
2023/06/10 05:44:14;;;;;;;;;;;;;;;;;;5073251;28;19991;-66
2023/06/10 05:46:40;;;;;;;;;;;;;;;;;;5073426;28;20040;-67
2023/06/10 05:49:06;;;;;;;;;;;;;;;;;;5073333;28;19978;-67
2023/06/10 05:51:32;;;;;;;;;;;;;;;;;;5073378;28;19970;-67
2023/06/10 05:53:58;;;;;;;;;;;;;;;;;;5073558;28;20009;-67
2023/06/10 05:56:23;;;;;;;;;;;;;;;;;;5073183;28;19963;-68
2023/06/10 05:58:49;;;;;;;;;;;;;;;;;;5073542;28;20046;-67
2023/06/10 06:01:15;;;;;;;;;;;;;;;;;;5073552;28;20409;-67
2023/06/10 06:03:41;;;;;;;;;;;;;;;;;;5073204;28;20054;-67
2023/06/10 06:06:07;;;;;;;;;;;;;;;;;;5073499;28;19960;-67
2023/06/10 06:08:33;;;;;;;;;;;;;;;;;;5073184;28;20405;-67
2023/06/10 06:10:59;;;;;;;;;;;;;;;;;;5073431;28;19956;-67
2023/06/10 06:13:25;;;;;;;;;;;;;;;;;;5073672;28;20428;-67
2023/06/10 06:15:51;;;;;;;;;;;;;;;;;;5073133;28;19956;-66
2023/06/10 06:18:18;;;;;;;;;;;;;;;;;;5073574;28;19976;-67
2023/06/10 06:20:44;;;;;;;;;;;;;;;;;;5073077;28;20009;-67
2023/06/10 06:23:10;;;;;;;;;;;;;;;;;;5073346;28;19959;-66
2023/06/10 06:25:38;;;;;;;;;;;;;;;;;;5073051;28;19956;-67
2023/06/10 06:28:04;;;;;;;;;;;;;;;;;;5073263;28;19985;-67
2023/06/10 06:30:30;;;;;;;;;;;;;;;;;;5072962;28;19959;-67
2023/06/10 06:32:56;;;;;;;;;;;;;;;;;;5073821;28;19963;-67
2023/06/10 06:35:22;;;;;;;;;;;;;;;;;;5076450;28;20379;-68
2023/06/10 06:37:48;;;;;;;;;;;;;;;;;;5076736;28;19975;-68
2023/06/10 06:40:14;;;;;;;;;;;;;;;;;;5076533;28;19955;-67
2023/06/10 06:42:39;;;;;;;;;;;;;;;;;;5076112;28;20101;-68
2023/06/10 06:45:05;;;;;;;;;;;;;;;;;;5076821;28;20054;-67
2023/06/10 06:47:31;;;;;;;;;;;;;;;;;;5076401;28;20425;-67
2023/06/10 06:49:57;;;;;;;;;;;;;;;;;;5076662;28;19956;-68
2023/06/10 06:52:23;;;;;;;;;;;;;;;;;;5076328;28;20046;-68
2023/06/10 06:54:49;;;;;;;;;;;;;;;;;;5076260;28;19977;-67
2023/06/10 06:57:15;;;;;;;;;;;;;;;;;;5076440;28;19987;-68
2023/06/10 06:59:41;;;;;;;;;;;;;;;;;;5076195;28;19956;-67
2023/06/10 07:02:07;;;;;;;;;;;;;;;;;;5076130;28;19960;-68
2023/06/10 07:04:33;;;;;;;;;;;;;;;;;;5076350;28;20002;-68
2023/06/10 07:06:58;;;;;;;;;;;;;;;;;;5076091;28;19995;-67
2023/06/10 07:09:24;;;;;;;;;;;;;;;;;;5076012;28;19962;-68
2023/06/10 07:11:50;;;;;;;;;;;;;;;;;;5075971;28;20033;-68
2023/06/10 07:14:16;;;;;;;;;;;;;;;;;;5076433;28;19956;-69
2023/06/10 07:16:42;;;;;;;;;;;;;;;;;;5076018;28;19976;-68
2023/06/10 07:19:08;;;;;;;;;;;;;;;;;;5076126;28;20050;-68
2023/06/10 07:21:34;;;;;;;;;;;;;;;;;;5075752;28;19963;-68
2023/06/10 07:24:00;;;;;;;;;;;;;;;;;;5075731;28;20003;-68
2023/06/10 07:26:26;;;;;;;;;;;;;;;;;;5076212;28;20436;-67
2023/06/10 07:28:52;;;;;;;;;;;;;;;;;;5075916;28;20001;-67
2023/06/10 07:31:18;;;;;;;;;;;;;;;;;;5075623;28;20046;-67
2023/06/10 07:33:44;;;;;;;;;;;;;;;;;;5075780;28;19972;-67
2023/06/10 07:36:10;;;;;;;;;;;;;;;;;;5075787;28;19960;-68
2023/06/10 07:38:36;;;;;;;;;;;;;;;;;;5075927;28;19998;-68
2023/06/10 07:41:01;;;;;;;;;;;;;;;;;;5075693;28;20026;-67
2023/06/10 07:43:27;;;;;;;;;;;;;;;;;;5075560;28;20041;-69
2023/06/10 07:45:53;;;;;;;;;;;;;;;;;;5075160;28;19960;-68
2023/06/10 07:48:19;;;;;;;;;;;;;;;;;;5075251;28;19956;-67
2023/06/10 07:50:45;;;;;;;;;;;;;;;;;;5075196;28;20493;-67
2023/06/10 07:53:11;;;;;;;;;;;;;;;;;;5075713;28;19955;-68
2023/06/10 07:55:37;;;;;;;;;;;;;;;;;;5075341;28;19956;-68
2023/06/10 07:58:03;;;;;;;;;;;;;;;;;;5074960;28;19976;-67
2023/06/10 08:00:29;;;;;;;;;;;;;;;;;;5074999;28;19962;-68
2023/06/10 08:02:55;;;;;;;;;;;;;;;;;;5075208;28;19959;-67
2023/06/10 08:05:21;;;;;;;;;;;;;;;;;;5075214;28;20009;-67
2023/06/10 08:07:47;;;;;;;;;;;;;;;;;;5075084;28;19963;-68
2023/06/10 08:10:13;;;;;;;;;;;;;;;;;;5075335;28;19995;-68
2023/06/10 08:12:39;;;;;;;;;;;;;;;;;;5074717;28;19955;-67
2023/06/10 08:15:05;;;;;;;;;;;;;;;;;;5075229;28;19962;-67
2023/06/10 08:17:30;;;;;;;;;;;;;;;;;;5074838;28;20552;-68
2023/06/10 08:19:56;;;;;;;;;;;;;;;;;;5074903;28;19959;-67
2023/06/10 08:22:22;;;;;;;;;;;;;;;;;;5075133;28;19956;-67
2023/06/10 08:24:48;;;;;;;;;;;;;;;;;;5074820;28;19956;-68
2023/06/10 08:27:14;;;;;;;;;;;;;;;;;;5075047;28;19956;-68
2023/06/10 08:29:40;;;;;;;;;;;;;;;;;;5074415;28;20447;-68
2023/06/10 08:32:06;;;;;;;;;;;;;;;;;;5074663;28;19963;-67
2023/06/10 08:34:32;;;;;;;;;;;;;;;;;;5074254;28;19979;-67
2023/06/10 08:36:58;;;;;;;;;;;;;;;;;;5074476;28;19975;-68
2023/06/10 08:39:24;;;;;;;;;;;;;;;;;;5074291;28;19957;-68
2023/06/10 08:41:50;;;;;;;;;;;;;;;;;;5074533;28;20007;-68
2023/06/10 08:44:18;;;;;;;;;;;;;;;;;;5073794;28;20544;-68
2023/06/10 08:46:44;;;;;;;;;;;;;;;;;;5074428;28;19956;-67
2023/06/10 08:49:10;;;;;;;;;;;;;;;;;;5074344;28;19971;-67
2023/06/10 08:51:36;;;;;;;;;;;;;;;;;;5074048;28;19956;-67
2023/06/10 08:54:02;;;;;;;;;;;;;;;;;;5074335;28;20416;-67
2023/06/10 08:56:28;;;;;;;;;;;;;;;;;;5073455;28;20009;-68
2023/06/10 08:58:55;;;;;;;;;;;;;;;;;;5074193;28;19955;-68
2023/06/10 09:01:20;;;;;;;;;;;;;;;;;;5074182;28;20375;-68
2023/06/10 09:03:46;;;;;;;;;;;;;;;;;;5073851;28;20042;-73
2023/06/10 09:06:12;;;;;;;;;;;;;;;;;;5074106;28;19955;-74
2023/06/10 09:08:38;;;;;;;;;;;;;;;;;;5073806;28;19956;-71
2023/06/10 09:11:04;;;;;;;;;;;;;;;;;;5074030;28;19955;-71
2023/06/10 09:13:30;;;;;;;;;;;;;;;;;;5074287;28;19960;-74
2023/06/10 09:16:00;;;;;;;;;;;;;;;;;;5073921;28;19960;-71
2023/06/10 09:18:25;;;;;;;;;;;;;;;;;;5073915;28;20007;-72
2023/06/10 09:20:51;;;;;;;;;;;;;;;;;;5073616;28;20002;-72
2023/06/10 09:23:17;;;;;;;;;;;;;;;;;;5074203;28;19956;-72
2023/06/10 09:25:43;;;;;;;;;;;;;;;;;;5073764;28;19956;-68
2023/06/10 09:28:09;;;;;;;;;;;;;;;;;;5073879;28;20467;-67
2023/06/10 09:30:35;;;;;;;;;;;;;;;;;;5073359;28;19962;-70
2023/06/10 09:33:01;;;;;;;;;;;;;;;;;;5073469;28;19956;-70
2023/06/10 09:35:27;;;;;;;;;;;;;;;;;;5073363;28;20021;-71
2023/06/10 09:37:53;;;;;;;;;;;;;;;;;;5073874;28;20452;-70
2023/06/10 09:40:19;;;;;;;;;;;;;;;;;;5073545;28;19960;-70
2023/06/10 09:42:45;;;;;;;;;;;;;;;;;;5073697;28;20086;-70
2023/06/10 09:45:11;;;;;;;;;;;;;;;;;;5073695;28;20085;-70
2023/06/10 09:47:37;;;;;;;;;;;;;;;;;;5073400;28;19956;-71
2023/06/10 09:50:03;;;;;;;;;;;;;;;;;;5073325;28;19955;-75
2023/06/10 09:52:29;;;;;;;;;;;;;;;;;;5073530;28;19955;-70
2023/06/10 09:54:55;;;;;;;;;;;;;;;;;;5073073;28;20430;-72
2023/06/10 09:57:21;;;;;;;;;;;;;;;;;;5073562;28;20437;-68
2023/06/10 09:59:47;;;;;;;;;;;;;;;;;;5073600;28;19956;-69
2023/06/10 10:02:13;;;;;;;;;;;;;;;;;;5073249;28;20050;-68
2023/06/10 10:04:39;;;;;;;;;;;;;;;;;;5072189;28;20266;-68
2023/06/10 10:07:06;;;;;;;;;;;;;;;;;;5073439;28;19991;-68
2023/06/10 10:09:32;;;;;;;;;;;;;;;;;;5076401;28;19960;-68
2023/06/10 10:11:58;;;;;;;;;;;;;;;;;;5077023;28;19963;-69
2023/06/10 10:14:25;;;;;;;;;;;;;;;;;;5077053;28;20337;-68
2023/06/10 10:16:51;;;;;;;;;;;;;;;;;;5077006;28;19975;-68
2023/06/10 10:19:17;;;;;;;;;;;;;;;;;;5076566;28;19955;-68
2023/06/10 10:21:43;;;;;;;;;;;;;;;;;;5075222;28;20349;-68
2023/06/10 10:24:09;;;;;;;;;;;;;;;;;;5074811;28;19956;-69
2023/06/10 10:26:35;;;;;;;;;;;;;;;;;;5073504;28;20364;-69
2023/06/10 10:29:01;;;;;;;;;;;;;;;;;;5074732;28;19955;-69
2023/06/10 10:31:27;;;;;;;;;;;;;;;;;;5074748;28;19955;-69
2023/06/10 10:33:53;;;;;;;;;;;;;;;;;;5075318;28;20116;-69
2023/06/10 10:36:18;;;;;;;;;;;;;;;;;;5076031;28;20401;-68
2023/06/10 10:38:44;;;;;;;;;;;;;;;;;;5075198;28;19979;-69
2023/06/10 10:41:10;;;;;;;;;;;;;;;;;;5077087;28;19991;-69
2023/06/10 10:43:36;;;;;;;;;;;;;;;;;;5076287;28;19998;-68
2023/06/10 10:46:03;;;;;;;;;;;;;;;;;;5076716;28;20435;-68
2023/06/10 10:48:29;;;;;;;;;;;;;;;;;;5076684;28;20333;-69
2023/06/10 10:50:55;;;;;;;;;;;;;;;;;;5076429;28;19960;-68
2023/06/10 10:53:21;;;;;;;;;;;;;;;;;;5076903;28;20423;-69
2023/06/10 10:55:47;;;;;;;;;;;;;;;;;;5076529;28;19966;-69
2023/06/10 10:58:13;;;;;;;;;;;;;;;;;;5076717;28;19975;-68
2023/06/10 11:00:39;;;;;;;;;;;;;;;;;;5076211;28;20002;-68
2023/06/10 11:03:06;;;;;;;;;;;;;;;;;;5076458;28;19956;-68
2023/06/10 11:05:32;;;;;;;;;;;;;;;;;;5076166;28;19955;-68
2023/06/10 11:07:58;;;;;;;;;;;;;;;;;;5076632;28;19956;-68
2023/06/10 11:10:24;;;;;;;;;;;;;;;;;;5076030;28;19962;-68
2023/06/10 11:12:49;;;;;;;;;;;;;;;;;;5076569;28;19959;-69
2023/06/10 11:15:15;;;;;;;;;;;;;;;;;;5076460;28;20006;-68
2023/06/10 11:17:41;;;;;;;;;;;;;;;;;;5076084;28;19982;-68
2023/06/10 11:20:07;;;;;;;;;;;;;;;;;;5075378;28;19956;-68
2023/06/10 11:22:33;;;;;;;;;;;;;;;;;;5076329;28;20401;-68
2023/06/10 11:24:59;;;;;;;;;;;;;;;;;;5075744;28;20058;-69
2023/06/10 11:27:25;;;;;;;;;;;;;;;;;;5075708;28;19956;-69
2023/06/10 11:29:51;;;;;;;;;;;;;;;;;;5076186;28;19963;-68
2023/06/10 11:32:17;;;;;;;;;;;;;;;;;;5075633;28;20005;-68
2023/06/10 11:34:43;;;;;;;;;;;;;;;;;;5075724;28;20070;-69
2023/06/10 11:37:09;;;;;;;;;;;;;;;;;;5075407;28;20384;-69
2023/06/10 11:39:34;;;;;;;;;;;;;;;;;;5076047;28;19955;-68
2023/06/10 11:42:00;;;;;;;;;;;;;;;;;;5075379;28;20007;-69
2023/06/10 11:44:26;;;;;;;;;;;;;;;;;;5074966;28;19997;-68
2023/06/10 11:46:52;;;;;;;;;;;;;;;;;;5075566;28;19959;-68
2023/06/10 11:49:18;;;;;;;;;;;;;;;;;;5075495;28;19956;-68
2023/06/10 11:51:49;;;;;;;;;;;;;;;;;;5075214;28;19956;-68
2023/06/10 11:54:15;;;;;;;;;;;;;;;;;;5073695;28;20008;-68
2023/06/10 11:56:41;;;;;;;;;;;;;;;;;;5075102;28;20043;-68
2023/06/10 11:59:07;;;;;;;;;;;;;;;;;;5075313;28;20050;-68
2023/06/10 12:01:33;;;;;;;;;;;;;;;;;;5074946;28;19956;-68
2023/06/10 12:03:59;;;;;;;;;;;;;;;;;;5075506;28;20325;-68
2023/06/10 12:06:25;;;;;;;;;;;;;;;;;;5075205;28;19994;-68
2023/06/10 12:08:51;;;;;;;;;;;;;;;;;;5074878;28;20009;-68
2023/06/10 12:11:17;;;;;;;;;;;;;;;;;;5075084;28;19963;-68
2023/06/10 12:13:50;;;;;;;;;;;;;;;;;;5074930;28;20418;-68
2023/06/10 12:16:16;;;;;;;;;;;;;;;;;;5075068;28;19956;-68
2023/06/10 12:18:42;;;;;;;;;;;;;;;;;;5074594;28;19976;-68
2023/06/10 12:21:08;;;;;;;;;;;;;;;;;;5074580;28;19955;-68
2023/06/10 12:23:34;;;;;;;;;;;;;;;;;;5074675;28;20017;-68
2023/06/10 12:26:00;;;;;;;;;;;;;;;;;;5074547;28;20058;-68
2023/06/10 12:28:26;;;;;;;;;;;;;;;;;;5074740;28;19956;-68
2023/06/10 12:30:52;;;;;;;;;;;;;;;;;;5073917;28;19956;-68
2023/06/10 12:33:17;;;;;;;;;;;;;;;;;;5074914;28;19955;-68
2023/06/10 12:35:43;;;;;;;;;;;;;;;;;;5074248;28;19971;-68
2023/06/10 12:38:11;;;;;;;;;;;;;;;;;;5074237;28;19976;-69
2023/06/10 12:40:38;;;;;;;;;;;;;;;;;;5074516;28;20332;-68
2023/06/10 12:43:04;;;;;;;;;;;;;;;;;;5074192;28;19995;-68
2023/06/10 12:45:30;;;;;;;;;;;;;;;;;;5074442;28;19967;-68
2023/06/10 12:47:56;;;;;;;;;;;;;;;;;;5074185;28;19960;-68
2023/06/10 12:50:22;;;;;;;;;;;;;;;;;;5074092;28;19956;-68
2023/06/10 12:52:48;;;;;;;;;;;;;;;;;;5074575;28;20406;-68
2023/06/10 12:55:14;;;;;;;;;;;;;;;;;;5074252;28;19955;-68
2023/06/10 12:57:40;;;;;;;;;;;;;;;;;;5074745;28;20445;-68
2023/06/10 13:00:08;;;;;;;;;;;;;;;;;;5073903;28;19956;-68
2023/06/10 13:02:34;;;;;;;;;;;;;;;;;;5074518;28;19970;-68
2023/06/10 13:05:00;;;;;;;;;;;;;;;;;;5074149;28;19960;-68
2023/06/10 13:07:26;;;;;;;;;;;;;;;;;;5074402;28;20001;-68
2023/06/10 13:09:52;;;;;;;;;;;;;;;;;;5073788;28;19956;-68
2023/06/10 13:12:18;;;;;;;;;;;;;;;;;;5074066;28;19963;-68
2023/06/10 13:14:44;;;;;;;;;;;;;;;;;;5074540;28;20089;-68
2023/06/10 13:17:10;;;;;;;;;;;;;;;;;;5073956;28;20116;-68
2023/06/10 13:19:36;;;;;;;;;;;;;;;;;;5073655;28;20408;-68
2023/06/10 13:22:02;;;;;;;;;;;;;;;;;;5073704;28;19956;-68
2023/06/10 13:24:28;;;;;;;;;;;;;;;;;;5073668;28;19955;-69
2023/06/10 13:26:56;;;;;;;;;;;;;;;;;;5073592;28;19960;-68
2023/06/10 13:29:21;;;;;;;;;;;;;;;;;;5073585;28;20021;-69
2023/06/10 13:31:47;;;;;;;;;;;;;;;;;;5074296;28;20410;-68
2023/06/10 13:34:13;;;;;;;;;;;;;;;;;;5073455;28;19971;-68
2023/06/10 13:36:39;;;;;;;;;;;;;;;;;;5073436;28;19955;-69
2023/06/10 13:39:07;;;;;;;;;;;;;;;;;;5073507;28;19962;-68
2023/06/10 13:41:33;;;;;;;;;;;;;;;;;;5073889;28;20429;-69
2023/06/10 13:43:58;;;;;;;;;;;;;;;;;;5077547;28;20042;-68
2023/06/10 13:46:26;;;;;;;;;;;;;;;;;;5077872;28;20006;-68
2023/06/10 13:48:52;;;;;;;;;;;;;;;;;;5077581;28;20341;-68
2023/06/10 13:51:18;;;;;;;;;;;;;;;;;;5078098;28;19956;-68
2023/06/10 13:53:45;;;;;;;;;;;;;;;;;;5077470;28;19972;-68
2023/06/10 13:56:11;;;;;;;;;;;;;;;;;;5077381;28;19960;-68
2023/06/10 13:58:39;;;;;;;;;;;;;;;;;;5077598;28;19975;-68
2023/06/10 14:01:05;;;;;;;;;;;;;;;;;;5077338;28;19956;-68
2023/06/10 14:03:31;;;;;;;;;;;;;;;;;;5077243;28;19969;-68
2023/06/10 14:05:57;;;;;;;;;;;;;;;;;;5077247;28;19955;-68
2023/06/10 14:08:23;;;;;;;;;;;;;;;;;;5077760;28;20387;-68
2023/06/10 14:10:50;;;;;;;;;;;;;;;;;;5077438;28;19956;-68
2023/06/10 14:13:16;;;;;;;;;;;;;;;;;;5075868;28;19959;-68
2023/06/10 14:15:42;;;;;;;;;;;;;;;;;;5076334;28;20008;-68
2023/06/10 14:18:08;;;;;;;;;;;;;;;;;;5077018;28;20465;-68
2023/06/10 14:20:34;;;;;;;;;;;;;;;;;;5076984;28;19955;-68
2023/06/10 14:23:00;;;;;;;;;;;;;;;;;;5077183;28;19981;-68
2023/06/10 14:25:26;;;;;;;;;;;;;;;;;;5077439;28;20409;-68
2023/06/10 14:27:52;;;;;;;;;;;;;;;;;;5076841;28;19963;-68
2023/06/10 14:30:18;;;;;;;;;;;;;;;;;;5077050;28;19956;-69
2023/06/10 14:32:44;;;;;;;;;;;;;;;;;;5076690;28;19956;-68
2023/06/10 14:35:10;;;;;;;;;;;;;;;;;;5076743;28;19979;-68
2023/06/10 14:37:36;;;;;;;;;;;;;;;;;;5076904;28;20460;-69
2023/06/10 14:40:02;;;;;;;;;;;;;;;;;;5075348;28;20436;-68
2023/06/10 14:42:28;;;;;;;;;;;;;;;;;;5076836;28;19978;-68
2023/06/10 14:44:54;;;;;;;;;;;;;;;;;;5076530;28;19967;-69
2023/06/10 14:47:20;;;;;;;;;;;;;;;;;;5077022;28;20302;-68
2023/06/10 14:49:46;;;;;;;;;;;;;;;;;;5076427;28;19962;-68
2023/06/10 14:52:11;;;;;;;;;;;;;;;;;;5076607;28;19962;-68
2023/06/10 14:54:37;;;;;;;;;;;;;;;;;;5075382;28;20038;-68
2023/06/10 14:57:03;;;;;;;;;;;;;;;;;;5076485;28;19982;-68
2023/06/10 14:59:30;;;;;;;;;;;;;;;;;;5076257;28;20444;-69
2023/06/10 15:01:57;;;;;;;;;;;;;;;;;;5074698;28;19966;-68
2023/06/10 15:04:23;;;;;;;;;;;;;;;;;;5076198;28;19956;-68
2023/06/10 15:06:50;;;;;;;;;;;;;;;;;;5076077;28;20310;-69
2023/06/10 15:09:15;;;;;;;;;;;;;;;;;;5076132;28;20021;-68
2023/06/10 15:11:41;;;;;;;;;;;;;;;;;;5076056;28;20425;-69
2023/06/10 15:14:07;;;;;;;;;;;;;;;;;;5076826;28;19959;-69
2023/06/10 15:16:33;;;;;;;;;;;;;;;;;;5076747;28;19956;-68
2023/06/10 15:18:59;;;;;;;;;;;;;;;;;;5075825;28;20028;-68
2023/06/10 15:21:25;;;;;;;;;;;;;;;;;;5076143;28;19959;-68
2023/06/10 15:23:51;;;;;;;;;;;;;;;;;;5075789;28;20421;-68
2023/06/10 15:26:17;;;;;;;;;;;;;;;;;;5075784;28;19956;-69
2023/06/10 15:28:43;;;;;;;;;;;;;;;;;;5075704;28;19962;-68
2023/06/10 15:31:09;;;;;;;;;;;;;;;;;;5075530;28;20423;-68
2023/06/10 15:33:35;;;;;;;;;;;;;;;;;;5075551;28;19956;-68
2023/06/10 15:36:01;;;;;;;;;;;;;;;;;;5075799;28;19970;-68
2023/06/10 15:38:27;;;;;;;;;;;;;;;;;;5075774;28;19980;-69
2023/06/10 15:40:53;;;;;;;;;;;;;;;;;;5075491;28;20006;-68
2023/06/10 15:43:19;;;;;;;;;;;;;;;;;;5075583;28;19998;-68
2023/06/10 15:45:45;;;;;;;;;;;;;;;;;;5075625;28;19956;-68
2023/06/10 15:48:11;;;;;;;;;;;;;;;;;;5075275;28;19956;-68
2023/06/10 15:50:37;;;;;;;;;;;;;;;;;;5075270;28;20054;-68
2023/06/10 15:53:03;;;;;;;;;;;;;;;;;;5075211;28;19956;-68
2023/06/10 15:55:29;;;;;;;;;;;;;;;;;;5075265;28;20053;-68
2023/06/10 15:57:56;;;;;;;;;;;;;;;;;;5075089;28;20477;-68
2023/06/10 16:00:22;;;;;;;;;;;;;;;;;;5075042;28;19967;-68
2023/06/10 16:02:48;;;;;;;;;;;;;;;;;;5075040;28;19956;-68
2023/06/10 16:05:14;;;;;;;;;;;;;;;;;;5075226;28;19962;-68
2023/06/10 16:07:40;;;;;;;;;;;;;;;;;;5075200;28;20005;-68
2023/06/10 16:10:06;;;;;;;;;;;;;;;;;;5074914;28;20005;-68
2023/06/10 16:12:32;;;;;;;;;;;;;;;;;;5075160;28;19955;-68
2023/06/10 16:14:58;;;;;;;;;;;;;;;;;;5075304;28;19994;-69
2023/06/10 16:17:24;;;;;;;;;;;;;;;;;;5074678;28;20463;-68
2023/06/10 16:19:50;;;;;;;;;;;;;;;;;;5074724;28;19981;-68
2023/06/10 16:22:16;;;;;;;;;;;;;;;;;;5074597;28;19960;-68
2023/06/10 16:24:42;;;;;;;;;;;;;;;;;;5074584;28;19963;-68
2023/06/10 16:27:08;;;;;;;;;;;;;;;;;;5074839;28;19970;-68
2023/06/10 16:29:34;;;;;;;;;;;;;;;;;;5074740;28;19959;-68
2023/06/10 16:31:59;;;;;;;;;;;;;;;;;;5074434;28;19978;-68
2023/06/10 16:34:25;;;;;;;;;;;;;;;;;;5074341;28;19978;-68
2023/06/10 16:36:51;;;;;;;;;;;;;;;;;;5074293;28;20024;-68